Rushville, IL

3:11 AM CDT on August 28, 2014 (GMT -0500)
Rushville (Inner City) | Change Station
CLOSE
Current Station
Personal Weather Station
Location: Rushville, IL
Elevation: 666 ft
Nearby Weather Stations

Elev 666 ft 40.12 °N, 90.57 °W | Updated 1 second ago

Mostly Cloudy
Mostly Cloudy
73.0 °F
Feels Like 70 °F
N
1.1
Wind Variable Wind from NNE
Gusts 3.0 mph

Today
High -- | Low -- °F
--% Chance of Precip.
Yesterday
High -- | Low -- °F
Precip. -- in
6:26 AM 7:40 PM
Waxing Crescent, 7% visible
Pressure 30.10 in
Visibility 10.0 miles
Clouds Scattered Clouds 3100 ft
Mostly Cloudy 7500 ft
Overcast 8500 ft
Heat Index 70 °F
Dew Point 70 °F
Humidity 92%
Rainfall 0.00 in
Snow Depth Not available.
UV 0 out of 12
Pollen 9.30 out of 12
Air Quality Not available.
Flu Activity Not available.
METAR KMQB 280755Z AUTO 08003KT 10SM SCT031 BKN075 OVC085 21/20 A3010 RMK AO2 T02050200

More Conditions Fewer Conditions

Pressure 30.10 in
Visibility 10.0 miles
Clouds Scattered Clouds 3100 ft
Mostly Cloudy 7500 ft
Overcast 8500 ft
Heat Index 70 °F
Dew Point 70 °F
Humidity 92%
Rainfall 0.00 in
Snow Depth Not available.
UV 0 out of 12
Pollen 9.30 out of 12
Air Quality Not available.
Flu Activity Not available.
METAR KMQB 280755Z AUTO 08003KT 10SM SCT031 BKN075 OVC085 21/20 A3010 RMK AO2 T02050200

More Conditions Fewer Conditions

10-Day Weather Forecast

Almanac

Astronomy

Aug. 28, 2014 Rise Set
Actual Time 6:26 AM CDT 7:40 PM CDT
Civil Twilight 5:58 AM CDT 8:08 PM CDT
Nautical Twilight 5:24 AM CDT 8:41 PM CDT
Astronomical Twilight 4:49 AM CDT 9:16 PM CDT
Moon 9:18 AM CDT 9:03 PM CDT
Length of Visible Light 14h 10m
Length of Day
13h 13m
Tomorrow will be 2m 31s shorter.
Waxing Crescent, 7% of the Moon is Illuminated
Today
Waxing Crescent
Sep 2
First Quarter
Sep 8
Full
Sep 15
Last Quarter
Sep 24
New

Today's Extremes

State Highs State Lows

Community

WunderPhotos

Upload Photos

1,747,918 photos uploaded!

Nearby

Snow Depth

Station Depth Elevation
No new snow has been reported.

Earthquake Activity

City Distance Mag. Time & Date
No recent earthquake activity has been reported nearby.
Minimum magnitude displayed is 2.5.

Coastal Water Temperatures

Place Temperature
No Stations Reporting

Nearby Weather Stations